Tinker Air Force Base
KTIK : now visible

Airfield :











YOU CAN JOIN US ON...

 
LOGIN :

Register | Disclaimer

   EN    FR    IT 

 









Legend :    VFR   Marginal VFR   IFR   Intensive IFR   Very Intensive IFR
Visi :
Ceiling :
>= 8 km
>= 3000ft
5 to 8 km
1000 to 3000 ft
1500m to 5 km
500 to 1000 ft
800 to 1500m
200 to 500 ft
< 800m
< 200 ft
Symbols :   Thunderstorms  Fog  Heavy snow  Heavy precipitations  Wind > 20 kt






- Airport Elevation : 1291 ft


KTIK - Tinker Air Force Base

CURRENT METAR :
  • 261556Z 36014KT 5SM +FZRAPL BR BKN009 00/M01 A3027 RMK AO2A CIG 006 RWY13 CIG 008 RWY18 SLP267 P0034 T00011006

EXPIRED METARs :
  • 261539Z COR 36011KT 5SM +FZRA BR VCTS BKN007 00/M01 A3026 RMK CIG 005V007 RWY13 PRESRR SLP264 COR 1543
  • 261530Z 36012G22KT 6SM +FZRA BR BKN005 00/M01 A3023 RMK AO2A LTG DSNT SE AND SW BKN V SCT SLP253
  • 261456Z 36014KT 6SM +FZRA BR BKN007 00/00 A3023 RMK AO2A LTG DSNT E-SE RAE41FZRAB41 CIG 004 RWY13 CIG 006 RWY18 PRESRR SLP253 P0032 60082 T00021005 53015
  • 261442Z 01015G25KT 5SM +FZRA BR BKN007 00/00 A3021 RMK AO2A LTG DSNT SE RAE41FZRAB41 CIG 004 RWY13 CIG 005 RWY18 PRESRR SLP246
  • 261430Z 02013KT 5SM +RA BR BKN007 00/00 A3018 RMK AO2A LTG DSNT S CIG 003 RWY13 CIG 005 RWY18 PRESFR SLP235
  • 261356Z 01016KT 4SM +RA BR OVC009 01/00 A3022 RMK AO2A LTG DSNT E TSE27 CIG 003 RWY13 CIG 008 RWY18 PRESFR SLP249 P0030 T00051002
  • 261327Z 35016KT 1 1/2SM +RA BR VCTS OVC007 01/00 A3022 RMK TSE27 PRESRR SLP249

TAF AMD TAF KTIK
Valid from the 26 at 12:00 until the 27 at 15:00 UTC


261220Z 2612/2715 02012G20KT 6000 -DZ BR OVC006 510202 QNH3008INS
TEMPO 2612/2615 01015G25KT 4800 -TSFZRA BKN008CB 690001
TEMPO 2615/2621 3200 -FZRA BR OVC002 690001 650103
BECMG 2620/2621 01015G25KT 6000 -FZDZ OVC005 660001 650103 520136 QNH3017INS TX01/2612Z TNM02/2701Z
KZFW FIR / North America



MET'MAP, your aeronautical weather chart ! - Copyright ORBIFLY December 2007 - Disclaimer

ORBIFLY MET'MAP TEAM :

Programming & Development : Alexandra Zaïnal
Concept & original design : Baudouin d'Aumeries
Assistance for programming : Marc-Olivier Méhu
Technical & hardware support : Manuel Goepfert

Contact : metmap@orbifly.com




SOURCES & CREDITS :

   NOAA       Earth
Advisory